createdAt,value
2017-05-02T00:00:16.012Z,9.56
2017-05-02T00:01:16.599Z,9.54
2017-05-02T00:02:17.173Z,9.65
2017-05-02T00:03:17.744Z,9.59
2017-05-02T00:04:18.318Z,9.50
2017-05-02T00:05:18.891Z,9.61
2017-05-02T00:06:19.464Z,9.54
2017-05-02T00:07:20.037Z,9.69
2017-05-02T00:08:20.611Z,9.56
2017-05-02T00:09:21.184Z,9.62
2017-05-02T00:10:21.757Z,9.50
2017-05-02T00:11:22.330Z,9.56
2017-05-02T00:12:22.903Z,9.58
2017-05-02T00:13:23.478Z,9.51
2017-05-02T00:14:24.053Z,9.48
2017-05-02T00:15:24.630Z,9.50
2017-05-02T00:16:25.201Z,9.59
2017-05-02T00:17:25.777Z,9.55
2017-05-02T00:18:26.350Z,9.40
2017-05-02T00:19:26.931Z,9.41
2017-05-02T00:20:27.499Z,9.55
2017-05-02T00:21:28.089Z,9.51
2017-05-02T00:22:28.688Z,9.46
2017-05-02T00:23:29.236Z,9.39
2017-05-02T00:24:29.810Z,9.37
2017-05-02T00:25:30.383Z,9.50
2017-05-02T00:26:30.956Z,9.31
2017-05-02T00:27:31.528Z,9.41
2017-05-02T00:28:32.101Z,9.31
2017-05-02T00:29:32.676Z,9.40
2017-05-02T00:30:33.249Z,9.39
2017-05-02T00:31:33.823Z,9.37
2017-05-02T00:32:34.412Z,9.37
2017-05-02T00:33:34.984Z,9.26
2017-05-02T00:34:35.557Z,9.29
2017-05-02T00:35:36.131Z,9.32
2017-05-02T00:36:36.704Z,9.23
2017-05-02T00:37:37.278Z,9.28
2017-05-02T00:38:37.854Z,9.29
2017-05-02T00:39:38.430Z,9.25
2017-05-02T00:40:39.018Z,9.26
2017-05-02T00:41:39.591Z,9.23
2017-05-02T00:42:40.179Z,9.26
2017-05-02T00:43:40.751Z,9.25
2017-05-02T00:44:41.324Z,9.31
2017-05-02T00:45:41.897Z,9.22
2017-05-02T00:46:42.475Z,9.22
2017-05-02T00:47:43.044Z,9.26
2017-05-02T00:48:43.619Z,9.25
2017-05-02T00:49:44.193Z,9.26
2017-05-02T00:50:44.768Z,9.26
2017-05-02T00:51:45.341Z,9.23
2017-05-02T00:52:45.918Z,9.18
2017-05-02T00:53:46.487Z,9.29
2017-05-02T00:54:47.060Z,9.18
2017-05-02T00:55:47.635Z,9.19
2017-05-02T00:56:48.206Z,9.29
2017-05-02T00:57:48.780Z,9.21
2017-05-02T00:58:49.353Z,9.25
2017-05-02T00:59:49.925Z,9.22
2017-05-02T01:00:50.497Z,9.26
2017-05-02T01:01:51.069Z,9.23
2017-05-02T01:02:51.641Z,9.22
2017-05-02T01:03:52.229Z,9.22
2017-05-02T01:04:52.802Z,9.22
2017-05-02T01:05:53.375Z,9.23
2017-05-02T01:06:53.947Z,9.21
2017-05-02T01:07:54.519Z,9.19
2017-05-02T01:08:55.091Z,9.19
2017-05-02T01:09:55.665Z,9.23
2017-05-02T01:10:56.239Z,9.22
2017-05-02T01:11:56.818Z,9.21
2017-05-02T01:12:57.389Z,9.19
2017-05-02T01:13:57.963Z,9.16
2017-05-02T01:14:58.536Z,9.21
2017-05-02T01:15:59.110Z,9.21
2017-05-02T01:16:59.684Z,9.22
2017-05-02T01:18:00.271Z,9.23
2017-05-02T01:19:00.844Z,9.16
2017-05-02T01:20:01.417Z,9.13
2017-05-02T01:21:01.989Z,9.13
2017-05-02T01:22:02.566Z,9.13
2017-05-02T01:23:03.134Z,9.23
2017-05-02T01:24:03.720Z,9.22
2017-05-02T01:25:04.294Z,9.13
2017-05-02T01:26:04.871Z,9.08
2017-05-02T01:27:05.444Z,9.08
2017-05-02T01:28:06.014Z,9.10
2017-05-02T01:29:06.587Z,9.10
2017-05-02T01:30:07.161Z,9.08
2017-05-02T01:31:07.734Z,9.06
2017-05-02T01:32:08.306Z,9.04
2017-05-02T01:33:08.879Z,9.10
2017-05-02T01:34:09.467Z,9.08
2017-05-02T01:35:10.039Z,9.14
2017-05-02T01:36:10.610Z,9.10
2017-05-02T01:37:11.184Z,9.10
2017-05-02T01:38:11.754Z,9.11
2017-05-02T01:39:12.329Z,9.13
2017-05-02T01:40:12.915Z,9.11
2017-05-02T01:41:13.489Z,9.08
2017-05-02T01:42:14.061Z,9.08
2017-05-02T01:43:14.634Z,9.04
2017-05-02T01:44:15.205Z,9.11
2017-05-02T01:45:15.777Z,9.10
2017-05-02T01:46:16.350Z,9.08
2017-05-02T01:47:16.922Z,9.06
2017-05-02T01:48:17.498Z,9.10
2017-05-02T01:49:18.080Z,9.18
2017-05-02T01:50:18.653Z,9.11
2017-05-02T01:51:19.227Z,9.14
2017-05-02T01:52:19.799Z,9.18
2017-05-02T01:53:20.370Z,9.10
2017-05-02T01:54:20.944Z,9.16
2017-05-02T01:55:21.517Z,9.14
2017-05-02T01:56:22.089Z,9.21
2017-05-02T01:57:22.663Z,9.21
2017-05-02T01:58:23.236Z,9.10
2017-05-02T01:59:23.814Z,9.19
2017-05-02T02:00:24.396Z,9.19
2017-05-02T02:01:24.969Z,9.16
2017-05-02T02:02:25.543Z,9.23
2017-05-02T02:03:26.117Z,9.22
2017-05-02T02:04:26.691Z,9.22
2017-05-02T02:05:27.263Z,9.23
2017-05-02T02:06:27.836Z,9.18
2017-05-02T02:07:28.409Z,9.23
2017-05-02T02:08:28.983Z,9.14
2017-05-02T02:09:29.555Z,9.21
2017-05-02T02:10:30.131Z,9.19
2017-05-02T02:11:30.701Z,9.21
2017-05-02T02:12:31.272Z,9.14
2017-05-02T02:13:31.843Z,9.23
2017-05-02T02:14:32.418Z,9.19
2017-05-02T02:15:32.993Z,9.16
2017-05-02T02:16:33.566Z,9.18
2017-05-02T02:17:34.140Z,9.21
2017-05-02T02:18:34.711Z,9.22
2017-05-02T02:19:35.286Z,9.21
2017-05-02T02:20:35.858Z,9.19
2017-05-02T02:21:36.432Z,9.19
2017-05-02T02:22:37.007Z,9.21
2017-05-02T02:23:37.576Z,9.18
2017-05-02T02:24:38.147Z,9.19
2017-05-02T02:25:38.720Z,9.22
2017-05-02T02:26:39.293Z,9.21
2017-05-02T02:27:39.865Z,9.22
2017-05-02T02:28:40.437Z,9.16
2017-05-02T02:29:41.010Z,9.21
2017-05-02T02:30:41.594Z,9.25
2017-05-02T02:31:42.166Z,9.16
2017-05-02T02:32:42.751Z,9.14
2017-05-02T02:33:43.329Z,9.23
2017-05-02T02:34:43.897Z,9.19
2017-05-02T02:35:44.477Z,9.16
2017-05-02T02:36:45.042Z,9.22
2017-05-02T02:37:45.618Z,9.19
2017-05-02T02:38:46.190Z,9.16
2017-05-02T02:39:46.766Z,9.19
2017-05-02T02:40:47.336Z,9.21
2017-05-02T02:41:47.907Z,9.06
2017-05-02T02:42:48.478Z,9.16
2017-05-02T02:43:49.051Z,9.14
2017-05-02T02:44:49.622Z,9.04
2017-05-02T02:45:50.193Z,9.04
2017-05-02T02:46:50.765Z,9.11
2017-05-02T02:47:51.337Z,9.10
2017-05-02T02:48:51.910Z,9.18
2017-05-02T02:49:52.481Z,9.11
2017-05-02T02:50:53.054Z,9.16
2017-05-02T02:51:53.625Z,9.14
2017-05-02T02:52:54.196Z,9.14
2017-05-02T02:53:54.768Z,9.08
2017-05-02T02:54:55.340Z,9.16
2017-05-02T02:55:55.913Z,9.06
2017-05-02T02:56:56.486Z,9.08
2017-05-02T02:57:57.059Z,9.14
2017-05-02T02:58:57.631Z,9.14
2017-05-02T02:59:58.206Z,9.23
2017-05-02T03:00:58.781Z,9.19
2017-05-02T03:01:59.365Z,9.16
2017-05-02T03:02:59.938Z,9.19
2017-05-02T03:04:00.523Z,9.08
2017-05-02T03:05:01.096Z,9.10
2017-05-02T03:06:01.666Z,9.06
2017-05-02T03:07:02.239Z,9.10
2017-05-02T03:08:02.811Z,9.11
2017-05-02T03:09:03.383Z,9.14
2017-05-02T03:10:03.953Z,9.10
2017-05-02T03:11:04.527Z,9.22
2017-05-02T03:12:05.100Z,9.04
2017-05-02T03:13:05.674Z,9.21
2017-05-02T03:14:06.247Z,9.10
2017-05-02T03:15:06.819Z,9.08
2017-05-02T03:16:07.393Z,9.16
2017-05-02T03:17:07.978Z,9.08
2017-05-02T03:18:08.574Z,9.04
2017-05-02T03:19:09.137Z,9.11
2017-05-02T03:20:09.710Z,9.03
2017-05-02T03:21:10.282Z,9.08
2017-05-02T03:22:10.854Z,9.10
2017-05-02T03:23:11.427Z,9.08
2017-05-02T03:24:11.998Z,9.10
2017-05-02T03:25:12.571Z,9.11
2017-05-02T03:26:13.158Z,9.08
2017-05-02T03:27:13.730Z,9.10
2017-05-02T03:28:14.302Z,9.08
2017-05-02T03:29:14.875Z,9.10
2017-05-02T03:30:15.446Z,9.10
2017-05-02T03:31:16.018Z,9.08
2017-05-02T03:32:16.591Z,9.10
2017-05-02T03:33:17.163Z,9.06
2017-05-02T03:34:17.735Z,9.08
2017-05-02T03:35:18.307Z,9.08
2017-05-02T03:36:18.881Z,9.14
2017-05-02T03:37:19.451Z,9.13
2017-05-02T03:38:20.025Z,9.08
2017-05-02T03:39:20.598Z,9.04
2017-05-02T03:40:21.172Z,9.08
2017-05-02T03:41:21.745Z,9.13
2017-05-02T03:42:22.319Z,9.14
2017-05-02T03:43:22.891Z,9.06
2017-05-02T03:44:23.479Z,9.06
2017-05-02T03:45:24.063Z,9.10
2017-05-02T03:46:24.636Z,9.10
2017-05-02T03:47:25.208Z,9.13
2017-05-02T03:48:25.780Z,9.19
2017-05-02T03:49:26.352Z,9.19
2017-05-02T03:50:26.923Z,9.19
2017-05-02T03:51:27.508Z,9.21
2017-05-02T03:52:28.081Z,9.11
2017-05-02T03:53:28.653Z,9.04
2017-05-02T03:54:29.225Z,9.10
2017-05-02T03:55:29.798Z,9.11
2017-05-02T03:56:30.384Z,9.11
2017-05-02T03:57:30.959Z,9.06
2017-05-02T03:58:31.545Z,9.10
2017-05-02T03:59:32.116Z,9.13
2017-05-02T04:00:32.691Z,9.16
2017-05-02T04:01:33.264Z,9.18
2017-05-02T04:02:33.837Z,9.19
2017-05-02T04:03:34.409Z,9.23
2017-05-02T04:04:34.982Z,9.19
2017-05-02T04:05:35.555Z,9.16
2017-05-02T04:06:36.128Z,9.21
2017-05-02T04:07:36.715Z,9.14
2017-05-02T04:08:37.287Z,9.14
2017-05-02T04:09:37.861Z,9.04
2017-05-02T04:10:38.433Z,9.18
2017-05-02T04:11:39.020Z,9.19
2017-05-02T04:12:39.596Z,9.16
2017-05-02T04:13:40.169Z,9.16
2017-05-02T04:14:40.792Z,9.19
2017-05-02T04:15:41.369Z,9.23
2017-05-02T04:16:41.942Z,9.22
2017-05-02T04:17:42.516Z,9.21
2017-05-02T04:18:43.090Z,9.19
2017-05-02T04:19:43.666Z,9.11
2017-05-02T04:20:44.251Z,9.31
2017-05-02T04:21:44.825Z,9.19
2017-05-02T04:22:45.399Z,9.22
2017-05-02T04:23:45.972Z,9.28
2017-05-02T04:24:46.559Z,9.23
2017-05-02T04:25:47.133Z,9.22
2017-05-02T04:26:47.706Z,9.21
2017-05-02T04:27:48.280Z,9.21
2017-05-02T04:28:48.868Z,9.26
2017-05-02T04:29:49.442Z,9.19
2017-05-02T04:30:50.015Z,9.26
2017-05-02T04:31:50.589Z,9.29
2017-05-02T04:32:51.163Z,9.25
2017-05-02T04:33:51.737Z,9.26
2017-05-02T04:34:52.323Z,9.28
2017-05-02T04:35:52.898Z,9.29
2017-05-02T04:36:53.470Z,9.21
2017-05-02T04:37:54.044Z,9.23
2017-05-02T04:38:54.618Z,9.23
2017-05-02T04:39:55.193Z,9.19
2017-05-02T04:40:55.766Z,9.26
2017-05-02T04:41:56.339Z,9.29
2017-05-02T04:42:56.915Z,9.18
2017-05-02T04:43:57.501Z,9.28
2017-05-02T04:44:58.075Z,9.28
2017-05-02T04:45:58.649Z,9.23
2017-05-02T04:46:59.224Z,9.28
2017-05-02T04:47:59.796Z,9.23
2017-05-02T04:49:00.368Z,9.26
2017-05-02T04:50:00.943Z,9.23
2017-05-02T04:51:01.515Z,9.23
2017-05-02T04:52:02.088Z,9.32
2017-05-02T04:53:02.671Z,9.23
2017-05-02T04:54:03.236Z,9.28
2017-05-02T04:55:03.811Z,9.23
2017-05-02T04:56:04.399Z,9.21
2017-05-02T04:57:04.974Z,9.26
2017-05-02T04:58:05.549Z,9.34
2017-05-02T04:59:06.123Z,9.31
2017-05-02T05:00:06.699Z,9.40
2017-05-02T05:01:07.271Z,9.37
2017-05-02T05:02:07.844Z,9.31
2017-05-02T05:03:08.418Z,9.26
2017-05-02T05:04:08.990Z,9.29
2017-05-02T05:05:09.566Z,9.31
2017-05-02T05:06:10.141Z,9.34
2017-05-02T05:07:10.714Z,9.40
2017-05-02T05:08:11.287Z,9.36
2017-05-02T05:09:11.862Z,9.39
2017-05-02T05:10:12.436Z,9.36
2017-05-02T05:11:13.010Z,9.39
2017-05-02T05:12:13.585Z,9.36
2017-05-02T05:13:14.161Z,9.50
2017-05-02T05:14:14.738Z,9.46
2017-05-02T05:15:15.311Z,9.46
2017-05-02T05:16:15.889Z,9.48
2017-05-02T05:17:16.478Z,9.51
2017-05-02T05:18:17.053Z,9.44
2017-05-02T05:19:17.627Z,9.50
2017-05-02T05:20:18.204Z,9.37
2017-05-02T05:21:18.775Z,9.46
2017-05-02T05:22:19.357Z,9.43
2017-05-02T05:23:19.931Z,9.41
2017-05-02T05:24:20.506Z,9.41
2017-05-02T05:25:21.098Z,9.41
2017-05-02T05:26:21.669Z,9.46
2017-05-02T05:27:22.243Z,9.32
2017-05-02T05:28:22.819Z,9.37
2017-05-02T05:29:23.393Z,9.39
2017-05-02T05:30:23.967Z,9.44
2017-05-02T05:31:24.554Z,9.47
2017-05-02T05:32:25.126Z,9.47
2017-05-02T05:33:25.703Z,9.37
2017-05-02T05:34:26.278Z,9.40
2017-05-02T05:35:26.854Z,9.37
2017-05-02T05:36:27.440Z,9.39
2017-05-02T05:37:28.014Z,9.37
2017-05-02T05:38:28.591Z,9.39
2017-05-02T05:39:29.164Z,9.41
2017-05-02T05:40:29.749Z,9.41
2017-05-02T05:41:30.326Z,9.40
2017-05-02T05:42:30.901Z,9.46
2017-05-02T05:43:31.474Z,9.39
2017-05-02T05:44:32.047Z,9.47
2017-05-02T05:45:32.621Z,9.46
2017-05-02T05:46:33.197Z,9.48
2017-05-02T05:47:33.772Z,9.46
2017-05-02T05:48:34.348Z,9.46
2017-05-02T05:49:34.924Z,9.41
2017-05-02T05:50:35.499Z,9.50
2017-05-02T05:51:36.073Z,9.43
2017-05-02T05:52:36.648Z,9.54
2017-05-02T05:53:37.235Z,9.47
2017-05-02T05:54:37.826Z,9.40
2017-05-02T05:55:38.397Z,9.44
2017-05-02T05:56:38.972Z,9.58
2017-05-02T05:57:39.549Z,9.51
2017-05-02T05:58:40.121Z,9.54
2017-05-02T05:59:40.697Z,9.41
2017-05-02T06:00:41.271Z,9.55
2017-05-02T06:01:41.849Z,9.56
2017-05-02T06:02:42.424Z,9.62
2017-05-02T06:03:42.997Z,9.51
2017-05-02T06:04:43.571Z,9.47
2017-05-02T06:05:44.146Z,9.50
2017-05-02T06:06:44.735Z,9.54
2017-05-02T06:07:45.307Z,9.55
2017-05-02T06:08:45.882Z,9.47
2017-05-02T06:09:46.458Z,9.65
2017-05-02T06:10:47.032Z,9.48
2017-05-02T06:11:47.608Z,9.56
2017-05-02T06:12:48.198Z,9.61
2017-05-02T06:13:48.786Z,9.56
2017-05-02T06:14:49.363Z,9.61
2017-05-02T06:15:49.953Z,9.64
2017-05-02T06:16:50.540Z,9.64
2017-05-02T06:17:51.116Z,9.61
2017-05-02T06:18:51.692Z,9.68
2017-05-02T06:19:52.270Z,9.66
2017-05-02T06:20:52.843Z,9.68
2017-05-02T06:21:53.418Z,9.59
2017-05-02T06:22:53.995Z,9.62
2017-05-02T06:23:54.570Z,9.56
2017-05-02T06:24:55.146Z,9.61
2017-05-02T06:25:55.721Z,9.58
2017-05-02T06:26:56.297Z,9.48
2017-05-02T06:27:56.870Z,9.68
2017-05-02T06:28:57.447Z,9.79
2017-05-02T06:29:58.032Z,9.68
2017-05-02T06:30:58.607Z,9.64
2017-05-02T06:31:59.207Z,9.68
2017-05-02T06:32:59.759Z,9.79
2017-05-02T06:34:00.333Z,9.76
2017-05-02T06:35:00.910Z,9.92
2017-05-02T06:36:01.486Z,9.86
2017-05-02T06:37:02.059Z,9.94
2017-05-02T06:38:02.634Z,9.84
2017-05-02T06:39:03.209Z,9.83
2017-05-02T06:40:03.786Z,9.79
2017-05-02T06:41:04.360Z,9.76
2017-05-02T06:42:04.937Z,9.79
2017-05-02T06:43:05.512Z,9.76
2017-05-02T06:44:06.087Z,9.74
2017-05-02T06:45:06.675Z,9.79
2017-05-02T06:46:07.248Z,9.86
2017-05-02T06:47:07.824Z,9.77
2017-05-02T06:48:08.402Z,9.80
2017-05-02T06:49:08.991Z,9.82
2017-05-02T06:50:09.568Z,9.77
2017-05-02T06:51:10.143Z,9.77
2017-05-02T06:52:10.719Z,9.79
2017-05-02T06:53:11.295Z,9.80
2017-05-02T06:54:11.870Z,9.80
2017-05-02T06:55:12.444Z,9.87
2017-05-02T06:56:13.022Z,9.92
2017-05-02T06:57:13.596Z,9.76
2017-05-02T06:58:14.177Z,9.82
2017-05-02T06:59:14.749Z,9.82
2017-05-02T07:00:15.329Z,9.86
2017-05-02T07:01:15.898Z,9.80
2017-05-02T07:02:16.474Z,9.79
2017-05-02T07:03:17.064Z,9.79
2017-05-02T07:04:17.640Z,9.79
2017-05-02T07:05:18.214Z,9.84
2017-05-02T07:06:18.791Z,9.86
2017-05-02T07:07:19.366Z,9.91
2017-05-02T07:08:19.940Z,9.92
2017-05-02T07:09:20.514Z,9.89
2017-05-02T07:10:21.089Z,9.86
2017-05-02T07:11:21.666Z,9.86
2017-05-02T07:12:22.243Z,9.84
2017-05-02T07:13:22.819Z,9.95
2017-05-02T07:14:23.396Z,9.86
2017-05-02T07:15:23.986Z,9.89
2017-05-02T07:16:24.562Z,9.87
2017-05-02T07:17:25.137Z,9.89
2017-05-02T07:18:25.713Z,9.94
2017-05-02T07:19:26.291Z,9.98
2017-05-02T07:20:26.866Z,9.99
2017-05-02T07:21:27.444Z,9.94
2017-05-02T07:22:28.017Z,9.99
2017-05-02T07:23:28.594Z,10.02
2017-05-02T07:24:29.173Z,10.05
2017-05-02T07:25:29.749Z,10.02
2017-05-02T07:26:30.325Z,10.01
2017-05-02T07:27:30.902Z,10.05
2017-05-02T07:28:31.481Z,10.15
2017-05-02T07:29:32.060Z,10.16
2017-05-02T07:30:32.642Z,10.15
2017-05-02T07:31:33.213Z,10.13
2017-05-02T07:32:33.793Z,10.20
2017-05-02T07:33:34.370Z,10.17
2017-05-02T07:34:34.947Z,10.25
2017-05-02T07:35:35.525Z,10.17
2017-05-02T07:36:36.101Z,10.17
2017-05-02T07:37:36.680Z,10.22
2017-05-02T07:38:37.258Z,10.19
2017-05-02T07:39:37.834Z,10.19
2017-05-02T07:40:38.414Z,10.31
2017-05-02T07:41:38.991Z,10.26
2017-05-02T07:42:39.576Z,10.33
2017-05-02T07:43:40.146Z,10.33
2017-05-02T07:44:40.738Z,10.41
2017-05-02T07:45:41.345Z,10.60
2017-05-02T07:46:41.923Z,10.63
2017-05-02T07:47:42.499Z,10.59
2017-05-02T07:48:43.079Z,10.57
2017-05-02T07:49:43.656Z,10.64
2017-05-02T07:50:44.235Z,10.54
2017-05-02T07:51:44.811Z,10.59
2017-05-02T07:52:45.388Z,10.64
2017-05-02T07:53:45.993Z,10.76
2017-05-02T07:54:46.545Z,10.76
2017-05-02T07:55:47.122Z,10.67
2017-05-02T07:56:47.703Z,10.69
2017-05-02T07:57:48.281Z,10.69
2017-05-02T07:58:48.857Z,10.82
2017-05-02T07:59:49.435Z,10.99
2017-05-02T08:00:50.014Z,11.07
2017-05-02T08:01:50.594Z,11.12
2017-05-02T08:02:51.172Z,11.12
2017-05-02T08:03:51.748Z,11.15
2017-05-02T08:04:52.326Z,11.15
2017-05-02T08:05:52.904Z,11.12
2017-05-02T08:06:53.482Z,11.11
2017-05-02T08:07:54.058Z,11.00
2017-05-02T08:08:54.636Z,11.10
2017-05-02T08:09:55.216Z,11.05
2017-05-02T08:10:55.794Z,11.50
2017-05-02T08:11:56.372Z,11.54
2017-05-02T08:12:56.951Z,11.48
2017-05-02T08:13:57.529Z,11.72
2017-05-02T08:14:58.144Z,11.47
2017-05-02T08:15:58.685Z,11.22
2017-05-02T08:16:59.263Z,11.51
2017-05-02T08:17:59.845Z,11.43
2017-05-02T08:19:00.420Z,11.51
2017-05-02T08:20:00.997Z,11.50
2017-05-02T08:21:01.577Z,11.78
2017-05-02T08:22:02.154Z,12.04
2017-05-02T08:23:02.733Z,12.07
2017-05-02T08:24:03.314Z,12.40
2017-05-02T08:25:03.889Z,11.68
2017-05-02T08:26:04.467Z,11.69
2017-05-02T08:27:05.044Z,11.77
2017-05-02T08:28:05.623Z,11.50
2017-05-02T08:29:06.203Z,11.70
2017-05-02T08:30:06.785Z,11.47
2017-05-02T08:31:07.361Z,11.37
2017-05-02T08:32:07.940Z,11.22
2017-05-02T08:33:08.530Z,11.22
2017-05-02T08:34:09.114Z,11.43
2017-05-02T08:35:09.689Z,11.26
2017-05-02T08:36:10.266Z,11.26
2017-05-02T08:37:10.843Z,11.27
2017-05-02T08:38:11.426Z,11.50
2017-05-02T08:39:11.999Z,11.37
2017-05-02T08:40:12.584Z,11.47
2017-05-02T08:41:13.156Z,11.37
2017-05-02T08:42:13.749Z,11.48
2017-05-02T08:43:14.327Z,11.50
2017-05-02T08:44:14.907Z,11.65
2017-05-02T08:45:15.497Z,11.86
2017-05-02T08:46:16.077Z,11.83
2017-05-02T08:47:16.657Z,11.84
2017-05-02T08:48:17.233Z,11.81
2017-05-02T08:49:17.812Z,11.94
2017-05-02T08:50:18.391Z,11.81
2017-05-02T08:51:18.971Z,11.68
2017-05-02T08:52:19.549Z,11.72
2017-05-02T08:53:20.128Z,11.77
2017-05-02T08:54:20.706Z,12.06
2017-05-02T08:55:21.286Z,12.07
2017-05-02T08:56:21.865Z,12.03
2017-05-02T08:57:22.444Z,12.04
2017-05-02T08:58:23.024Z,11.81
2017-05-02T08:59:23.602Z,11.65
2017-05-02T09:00:24.179Z,11.87
2017-05-02T09:01:24.758Z,11.72
2017-05-02T09:02:25.335Z,11.63
2017-05-02T09:03:25.915Z,11.73
2017-05-02T09:04:26.507Z,11.87
2017-05-02T09:05:27.085Z,11.84
2017-05-02T09:06:27.665Z,11.65
2017-05-02T09:07:28.245Z,11.54
2017-05-02T09:08:28.823Z,11.69
2017-05-02T09:09:29.405Z,11.59
2017-05-02T09:10:29.982Z,11.57
2017-05-02T09:11:30.561Z,11.77
2017-05-02T09:12:31.140Z,11.95
2017-05-02T09:13:31.719Z,11.83
2017-05-02T09:14:32.298Z,12.03
2017-05-02T09:15:32.877Z,12.10
2017-05-02T09:16:33.467Z,12.27
2017-05-02T09:17:34.047Z,11.87
2017-05-02T09:18:34.624Z,12.00
2017-05-02T09:19:35.204Z,12.13
2017-05-02T09:20:35.795Z,12.00
2017-05-02T09:21:36.374Z,11.81
2017-05-02T09:22:36.956Z,11.80
2017-05-02T09:23:37.534Z,11.90
2017-05-02T09:24:38.113Z,12.18
2017-05-02T09:25:38.692Z,11.95
2017-05-02T09:26:39.268Z,12.06
2017-05-02T09:27:39.848Z,11.97
2017-05-02T09:28:40.426Z,12.18
2017-05-02T09:29:41.006Z,12.03
2017-05-02T09:30:41.586Z,12.12
2017-05-02T09:31:42.179Z,12.06
2017-05-02T09:32:42.755Z,12.06
2017-05-02T09:33:43.334Z,12.37
2017-05-02T09:34:43.913Z,12.55
2017-05-02T09:35:44.493Z,12.54
2017-05-02T09:36:45.082Z,12.54
2017-05-02T09:37:45.655Z,12.45
2017-05-02T09:38:46.237Z,12.68
2017-05-02T09:39:46.813Z,12.79
2017-05-02T09:40:47.393Z,12.75
2017-05-02T09:41:47.985Z,12.42
2017-05-02T09:42:48.565Z,12.67
2017-05-02T09:43:49.147Z,12.82
2017-05-02T09:44:49.727Z,12.85
2017-05-02T09:45:50.308Z,13.08
2017-05-02T09:46:50.888Z,13.16
2017-05-02T09:47:51.468Z,13.03
2017-05-02T09:48:52.048Z,12.91
2017-05-02T09:49:52.629Z,12.82
2017-05-02T09:50:53.207Z,12.73
2017-05-02T09:51:53.786Z,12.94
2017-05-02T09:52:54.366Z,13.38
2017-05-02T09:53:54.945Z,13.53
2017-05-02T09:54:55.527Z,13.28
2017-05-02T09:55:56.106Z,13.19
2017-05-02T09:56:56.687Z,13.15
2017-05-02T09:57:57.268Z,13.09
2017-05-02T09:58:57.847Z,13.23
2017-05-02T09:59:58.426Z,13.20
2017-05-02T10:00:59.007Z,13.15
2017-05-02T10:01:59.585Z,13.13
2017-05-02T10:03:00.164Z,13.16
2017-05-02T10:04:00.745Z,13.15
2017-05-02T10:05:01.325Z,13.09
2017-05-02T10:06:01.905Z,13.11
2017-05-02T10:07:02.498Z,13.04
2017-05-02T10:08:03.082Z,13.13
2017-05-02T10:09:03.661Z,13.25
2017-05-02T10:10:04.237Z,13.18
2017-05-02T10:11:04.817Z,13.37
2017-05-02T10:12:05.398Z,13.52
2017-05-02T10:13:05.984Z,13.16
2017-05-02T10:14:06.559Z,13.37
2017-05-02T10:15:07.141Z,13.49
2017-05-02T10:16:07.722Z,13.57
2017-05-02T10:17:08.304Z,13.52
2017-05-02T10:18:08.886Z,13.70
2017-05-02T10:19:09.466Z,13.59
2017-05-02T10:20:10.049Z,13.44
2017-05-02T10:21:10.628Z,13.56
2017-05-02T10:22:11.209Z,13.54
2017-05-02T10:23:11.790Z,13.22
2017-05-02T10:24:12.373Z,13.56
2017-05-02T10:25:12.953Z,13.53
2017-05-02T10:26:13.536Z,13.56
2017-05-02T10:27:14.120Z,13.77
2017-05-02T10:28:14.700Z,13.95
2017-05-02T10:29:15.278Z,13.92
2017-05-02T10:30:15.861Z,13.57
2017-05-02T10:31:16.442Z,13.68
2017-05-02T10:32:17.037Z,13.65
2017-05-02T10:33:17.630Z,14.05
2017-05-02T10:34:18.210Z,13.59
2017-05-02T10:35:18.793Z,13.77
2017-05-02T10:36:19.373Z,13.92
2017-05-02T10:37:19.953Z,13.62
2017-05-02T10:38:20.534Z,13.86
2017-05-02T10:39:21.115Z,13.86
2017-05-02T10:40:21.698Z,13.75
2017-05-02T10:41:22.275Z,13.42
2017-05-02T10:42:22.857Z,13.30
2017-05-02T10:43:23.440Z,13.54
2017-05-02T10:44:24.021Z,13.50
2017-05-02T10:45:24.603Z,13.71
2017-05-02T10:46:25.186Z,14.23
2017-05-02T10:47:25.764Z,13.86
2017-05-02T10:48:26.350Z,14.08
2017-05-02T10:49:26.926Z,13.86
2017-05-02T10:50:27.506Z,14.14
2017-05-02T10:51:28.089Z,14.11
2017-05-02T10:52:28.671Z,13.99
2017-05-02T10:53:29.265Z,14.60
2017-05-02T10:54:29.847Z,14.40
2017-05-02T10:55:30.429Z,13.77
2017-05-02T10:56:31.016Z,13.70
2017-05-02T10:57:31.593Z,14.08
2017-05-02T10:58:32.176Z,14.04
2017-05-02T10:59:32.758Z,14.18
2017-05-02T11:00:33.352Z,14.30
2017-05-02T11:01:33.934Z,14.51
2017-05-02T11:02:34.517Z,14.35
2017-05-02T11:03:35.098Z,13.99
2017-05-02T11:04:35.679Z,13.83
2017-05-02T11:05:36.262Z,13.93
2017-05-02T11:06:36.840Z,13.60
2017-05-02T11:07:37.434Z,13.52
2017-05-02T11:08:38.019Z,13.60
2017-05-02T11:09:38.596Z,13.70
2017-05-02T11:10:39.174Z,13.50
2017-05-02T11:11:39.757Z,13.49
2017-05-02T11:12:40.335Z,13.56
2017-05-02T11:13:40.916Z,13.57
2017-05-02T11:14:41.497Z,13.49
2017-05-02T11:15:42.076Z,13.31
2017-05-02T11:16:42.670Z,13.19
2017-05-02T11:17:43.263Z,13.19
2017-05-02T11:18:43.842Z,13.05
2017-05-02T11:19:44.421Z,13.22
2017-05-02T11:20:45.001Z,13.25
2017-05-02T11:21:45.581Z,13.30
2017-05-02T11:22:46.189Z,13.38
2017-05-02T11:23:46.741Z,13.22
2017-05-02T11:24:47.321Z,13.53
2017-05-02T11:25:47.902Z,13.41
2017-05-02T11:26:48.483Z,13.19
2017-05-02T11:27:49.063Z,13.12
2017-05-02T11:28:49.643Z,13.09
2017-05-02T11:29:50.226Z,12.91
2017-05-02T11:30:50.805Z,12.98
2017-05-02T11:31:51.384Z,12.85
2017-05-02T11:32:51.965Z,12.65
2017-05-02T11:33:52.544Z,12.62
2017-05-02T11:34:53.124Z,12.80
2017-05-02T11:35:53.702Z,12.57
2017-05-02T11:36:54.281Z,12.79
2017-05-02T11:37:54.863Z,12.55
2017-05-02T11:38:55.443Z,12.50
2017-05-02T11:39:56.021Z,12.54
2017-05-02T11:40:56.602Z,12.67
2017-05-02T11:41:57.194Z,12.87
2017-05-02T11:42:57.774Z,12.87
2017-05-02T11:43:58.355Z,12.93
2017-05-02T11:44:58.935Z,12.85
2017-05-02T11:45:59.515Z,12.67
2017-05-02T11:47:00.097Z,12.53
2017-05-02T11:48:00.676Z,12.54
2017-05-02T11:49:01.253Z,12.57
2017-05-02T11:50:01.835Z,12.50
2017-05-02T11:51:02.414Z,12.78
2017-05-02T11:52:02.993Z,12.73
2017-05-02T11:53:03.573Z,12.73
2017-05-02T11:54:04.154Z,12.60
2017-05-02T11:55:04.731Z,12.57
2017-05-02T11:56:05.308Z,12.53
2017-05-02T11:57:05.900Z,12.86
2017-05-02T11:58:06.486Z,12.68
2017-05-02T11:59:07.059Z,12.76
2017-05-02T12:00:07.639Z,12.86
2017-05-02T12:01:08.218Z,12.67
2017-05-02T12:02:08.797Z,12.90
2017-05-02T12:03:09.375Z,13.08
2017-05-02T12:04:09.956Z,13.05
2017-05-02T12:05:10.536Z,13.00
2017-05-02T12:06:11.114Z,13.01
2017-05-02T12:07:11.693Z,13.03
2017-05-02T12:08:12.273Z,13.13
2017-05-02T12:09:12.854Z,13.05
2017-05-02T12:10:13.433Z,13.23
2017-05-02T12:11:14.013Z,13.22
2017-05-02T12:12:14.606Z,13.39
2017-05-02T12:13:15.186Z,13.20
2017-05-02T12:14:15.766Z,13.19
2017-05-02T12:15:16.345Z,13.16
2017-05-02T12:16:16.925Z,13.30
2017-05-02T12:17:17.505Z,13.41
2017-05-02T12:18:18.087Z,13.90
2017-05-02T12:19:18.667Z,14.12
2017-05-02T12:20:19.248Z,14.14
2017-05-02T12:21:19.833Z,13.75
2017-05-02T12:22:20.423Z,13.57
2017-05-02T12:23:21.001Z,13.49
2017-05-02T12:24:21.580Z,13.50
2017-05-02T12:25:22.161Z,13.23
2017-05-02T12:26:22.741Z,13.42
2017-05-02T12:27:23.323Z,13.54
2017-05-02T12:28:23.900Z,13.44
2017-05-02T12:29:24.480Z,13.20
2017-05-02T12:30:25.062Z,13.25
2017-05-02T12:31:25.640Z,13.22
2017-05-02T12:32:26.229Z,13.25
2017-05-02T12:33:26.830Z,13.27
2017-05-02T12:34:27.431Z,13.23
2017-05-02T12:35:28.011Z,13.15
2017-05-02T12:36:28.593Z,13.19
2017-05-02T12:37:29.174Z,13.28
2017-05-02T12:38:29.753Z,13.23
2017-05-02T12:39:30.334Z,13.16
2017-05-02T12:40:30.926Z,13.08
2017-05-02T12:41:31.506Z,13.01
2017-05-02T12:42:32.085Z,13.23
2017-05-02T12:43:32.665Z,13.03
2017-05-02T12:44:33.249Z,13.01
2017-05-02T12:45:33.840Z,12.91
2017-05-02T12:46:34.420Z,13.04
2017-05-02T12:47:34.999Z,13.08
2017-05-02T12:48:35.576Z,13.20
2017-05-02T12:49:36.157Z,13.18
2017-05-02T12:50:36.736Z,13.04
2017-05-02T12:51:37.318Z,12.85
2017-05-02T12:52:37.909Z,12.85
2017-05-02T12:53:38.487Z,12.87
2017-05-02T12:56:42.214Z,12.86
2017-05-02T12:57:42.793Z,12.94
2017-05-02T12:58:43.370Z,12.94
2017-05-02T12:59:43.950Z,12.90
2017-05-02T13:00:44.528Z,13.03
2017-05-02T13:01:45.103Z,12.91
2017-05-02T13:02:45.682Z,12.83
2017-05-02T13:03:46.260Z,12.87
2017-05-02T13:04:46.839Z,12.93
2017-05-02T13:05:47.417Z,12.97
2017-05-02T13:06:47.995Z,12.91
2017-05-02T13:07:48.587Z,12.95
2017-05-02T13:08:49.167Z,12.87
2017-05-02T13:09:49.746Z,12.85
2017-05-02T13:10:50.327Z,12.93
2017-05-02T13:11:50.905Z,12.97
2017-05-02T13:12:51.485Z,12.85
2017-05-02T13:13:52.065Z,12.82
2017-05-02T13:14:52.646Z,12.78
2017-05-02T13:15:53.223Z,12.67